Terminal Aerodrome Forecast
Issued by NWS Hastings, NE

Home | Current Version | Previous Version | Text Only | Print | Product List | Glossary On
Versions: 1 2 3 4 5 6 7 8 9 10 11 12 13 14 15 16 17 18 19 20 21 22 23 24 25 26 27 28 29 30 31 32
000
FTUS43 KGID 232320
TAFGRI
TAF
KGRI 232320Z 2400/2424 16017G24KT P6SM BKN130
     FM240200 17019G27KT P6SM VCTS SCT060CB BKN100 WS010/18045KT
     FM240600 17017G25KT P6SM VCSH BKN110
     FM240900 11012KT 5SM -SHRA BKN030
     FM241000 09012KT 5SM -SHRA BKN015
     FM241200 05013G20KT 4SM -SHRA BKN008
     FM242000 02014G22KT 5SM -SHRA BKN008=

USA.gov is the U.S. government's official web portal to all federal, state and local government web resources and services.